Danville, Washington
Current Conditions -  °F | °C
As of 6:53 AM on Monday 22 Dec 2014 (Local Time) from KOMK Reporting Station
Clear Clear  
Wind Chill: 28°   Ceiling: Unl
Heat Index: 28°   Visibility: 10mi
Dew Point: 26°   Wind: 3mph
Humidity: 92%   Direction: 300°WNW
Pressure: 30.13"   Gusts: NA
Location:  48.99°N, 118.51°W
Report Text: KOMK 221453Z AUTO 30003KT 10SM CLR M02/M03 A3013 RMK AO2 SLP215 T10221033 53029
Loading
Personal Weather Stations






























Interactive Weather Map New forecast layout! Learn more

10-Day Weather Forecast

Advertisements
Track Severe Weather on mobile